<?xml version="1.0" encoding="UTF-8" standalone="no" ?>
<gpx xmlns="http://www.topografix.com/GPX/1/1" xmlns:xsi="http://www.w3.org/2001/XMLSchema-instance" xsi:schemaLocation="http://www.topografix.com/GPX/1/1 http://www.topografix.com/GPX/1/1/gpx.xsd" version="1.1" creator="VisuGPX - https://www.visugpx.com">
  <metadata>
    <name>VDS 2024 VTT 20km</name>
  </metadata>
  <trk>
    <name><![CDATA[Sortie à VTT]]></name>
    <extensions>
      <line xmlns="http://www.topografix.com/GPX/gpx_style/0/2">
        <color>0000FF</color>
        <width>4</width>
      </line>
    </extensions>
    <trkseg>
      <trkpt lat="49.17694" lon="1.35643">
        <ele>12.474806</ele>
        <time>2024-04-10T19:44:29.425Z</time>
      </trkpt>
      <trkpt lat="49.1766" lon="1.35614">
        <ele>12.474806</ele>
        <time>2024-04-10T19:44:43.182Z</time>
      </trkpt>
      <trkpt lat="49.17629" lon="1.35587">
        <ele>12.474806</ele>
        <time>2024-04-10T19:44:55.956Z</time>
      </trkpt>
      <trkpt lat="49.17621" lon="1.35592">
        <ele>12.474806</ele>
        <time>2024-04-10T19:44:59.100Z</time>
      </trkpt>
      <trkpt lat="49.17536" lon="1.35504">
        <ele>13.145262</ele>
        <time>2024-04-10T19:45:25.194Z</time>
      </trkpt>
      <trkpt lat="49.1752" lon="1.35489">
        <ele>13.271942</ele>
        <time>2024-04-10T19:45:29.543Z</time>
      </trkpt>
      <trkpt lat="49.17506" lon="1.35474">
        <ele>13.390811</ele>
        <time>2024-04-10T19:45:34.009Z</time>
      </trkpt>
      <trkpt lat="49.17505" lon="1.35472">
        <ele>13.406581</ele>
        <time>2024-04-10T19:45:34.419Z</time>
      </trkpt>
      <trkpt lat="49.17477" lon="1.35438">
        <ele>13.655059</ele>
        <time>2024-04-10T19:45:42.442Z</time>
      </trkpt>
      <trkpt lat="49.17473" lon="1.3543">
        <ele>13.700143</ele>
        <time>2024-04-10T19:45:43.866Z</time>
      </trkpt>
      <trkpt lat="49.17463" lon="1.35421">
        <ele>13.764285</ele>
        <time>2024-04-10T19:45:46.350Z</time>
      </trkpt>
      <trkpt lat="49.17448" lon="1.35414">
        <ele>13.837767</ele>
        <time>2024-04-10T19:45:49.885Z</time>
      </trkpt>
      <trkpt lat="49.17463" lon="1.35333">
        <ele>14.106057</ele>
        <time>2024-04-10T19:46:01.432Z</time>
      </trkpt>
      <trkpt lat="49.17477" lon="1.35294">
        <ele>14.24813</ele>
        <time>2024-04-10T19:46:07.745Z</time>
      </trkpt>
      <trkpt lat="49.17519" lon="1.35195">
        <ele>14.617323</ele>
        <time>2024-04-10T19:46:23.594Z</time>
      </trkpt>
      <trkpt lat="49.17526" lon="1.3519">
        <ele>14.647757</ele>
        <time>2024-04-10T19:46:25.389Z</time>
      </trkpt>
      <trkpt lat="49.17549" lon="1.35195">
        <ele>14.740801</ele>
        <time>2024-04-10T19:46:30.590Z</time>
      </trkpt>
      <trkpt lat="49.1755" lon="1.35184">
        <ele>14.771321</ele>
        <time>2024-04-10T19:46:32.093Z</time>
      </trkpt>
      <trkpt lat="49.17557" lon="1.35181">
        <ele>14.801144</ele>
        <time>2024-04-10T19:46:34.581Z</time>
      </trkpt>
      <trkpt lat="49.17559" lon="1.35187">
        <ele>14.819919</ele>
        <time>2024-04-10T19:46:36.265Z</time>
      </trkpt>
      <trkpt lat="49.17628" lon="1.3521">
        <ele>15.10573</ele>
        <time>2024-04-10T19:46:55.760Z</time>
      </trkpt>
      <trkpt lat="49.17631" lon="1.35204">
        <ele>15.124639</ele>
        <time>2024-04-10T19:46:57.076Z</time>
      </trkpt>
      <trkpt lat="49.17637" lon="1.35209">
        <ele>15.151331</ele>
        <time>2024-04-10T19:46:58.701Z</time>
      </trkpt>
      <trkpt lat="49.17641" lon="1.35224">
        <ele>15.194279</ele>
        <time>2024-04-10T19:47:01.108Z</time>
      </trkpt>
      <trkpt lat="49.17649" lon="1.35226">
        <ele>15.225198</ele>
        <time>2024-04-10T19:47:02.747Z</time>
      </trkpt>
      <trkpt lat="49.17656" lon="1.35224">
        <ele>15.255623</ele>
        <time>2024-04-10T19:47:04.705Z</time>
      </trkpt>
      <trkpt lat="49.17664" lon="1.35229">
        <ele>15.292618</ele>
        <time>2024-04-10T19:47:06.949Z</time>
      </trkpt>
      <trkpt lat="49.17656" lon="1.35224">
        <ele>15.329612</ele>
        <time>2024-04-10T19:47:09.053Z</time>
      </trkpt>
      <trkpt lat="49.17663" lon="1.35215">
        <ele>15.335664</ele>
        <time>2024-04-10T19:47:10.890Z</time>
      </trkpt>
      <trkpt lat="49.17669" lon="1.35196">
        <ele>15.345128</ele>
        <time>2024-04-10T19:47:14.207Z</time>
      </trkpt>
      <trkpt lat="49.1765" lon="1.35185">
        <ele>15.358795</ele>
        <time>2024-04-10T19:47:18.025Z</time>
      </trkpt>
      <trkpt lat="49.176" lon="1.35161">
        <ele>15.394542</ele>
        <time>2024-04-10T19:47:29.141Z</time>
      </trkpt>
      <trkpt lat="49.17559" lon="1.35146">
        <ele>15.422625</ele>
        <time>2024-04-10T19:47:36.999Z</time>
      </trkpt>
      <trkpt lat="49.17557" lon="1.35145">
        <ele>15.424499</ele>
        <time>2024-04-10T19:47:37.510Z</time>
      </trkpt>
      <trkpt lat="49.17503" lon="1.35127">
        <ele>15.397097</ele>
        <time>2024-04-10T19:47:47.887Z</time>
      </trkpt>
      <trkpt lat="49.17502" lon="1.35127">
        <ele>15.393442</ele>
        <time>2024-04-10T19:47:48.065Z</time>
      </trkpt>
      <trkpt lat="49.17457" lon="1.35115">
        <ele>15.22675</ele>
        <time>2024-04-10T19:47:56.440Z</time>
      </trkpt>
      <trkpt lat="49.17387" lon="1.35104">
        <ele>14.972332</ele>
        <time>2024-04-10T19:48:09.324Z</time>
      </trkpt>
      <trkpt lat="49.17353" lon="1.35098">
        <ele>14.848687</ele>
        <time>2024-04-10T19:48:15.489Z</time>
      </trkpt>
      <trkpt lat="49.17339" lon="1.35099">
        <ele>14.796979</ele>
        <time>2024-04-10T19:48:17.951Z</time>
      </trkpt>
      <trkpt lat="49.17335" lon="1.35086">
        <ele>14.73248</ele>
        <time>2024-04-10T19:48:19.611Z</time>
      </trkpt>
      <trkpt lat="49.17329" lon="1.3508">
        <ele>14.686182</ele>
        <time>2024-04-10T19:48:20.782Z</time>
      </trkpt>
      <trkpt lat="49.1733" lon="1.35064">
        <ele>14.618673</ele>
        <time>2024-04-10T19:48:22.548Z</time>
      </trkpt>
      <trkpt lat="49.17332" lon="1.35025">
        <ele>14.445539</ele>
        <time>2024-04-10T19:48:26.945Z</time>
      </trkpt>
      <trkpt lat="49.17352" lon="1.34984">
        <ele>14.215678</ele>
        <time>2024-04-10T19:48:32.826Z</time>
      </trkpt>
      <trkpt lat="49.17363" lon="1.34968">
        <ele>14.114688</ele>
        <time>2024-04-10T19:48:35.438Z</time>
      </trkpt>
      <trkpt lat="49.17392" lon="1.3495">
        <ele>13.899784</ele>
        <time>2024-04-10T19:48:40.988Z</time>
      </trkpt>
      <trkpt lat="49.1742" lon="1.34944">
        <ele>13.706927</ele>
        <time>2024-04-10T19:48:45.961Z</time>
      </trkpt>
      <trkpt lat="49.17478" lon="1.34943">
        <ele>13.405699</ele>
        <time>2024-04-10T19:48:55.958Z</time>
      </trkpt>
      <trkpt lat="49.1749" lon="1.3494">
        <ele>13.348304</ele>
        <time>2024-04-10T19:48:58.307Z</time>
      </trkpt>
      <trkpt lat="49.1752" lon="1.34918">
        <ele>13.200165</ele>
        <time>2024-04-10T19:49:04.212Z</time>
      </trkpt>
      <trkpt lat="49.17528" lon="1.34924">
        <ele>13.159051</ele>
        <time>2024-04-10T19:49:05.905Z</time>
      </trkpt>
      <trkpt lat="49.1753" lon="1.34923">
        <ele>13.150433</ele>
        <time>2024-04-10T19:49:06.237Z</time>
      </trkpt>
      <trkpt lat="49.17532" lon="1.34933">
        <ele>13.122273</ele>
        <time>2024-04-10T19:49:07.710Z</time>
      </trkpt>
      <trkpt lat="49.1753" lon="1.34923">
        <ele>13.094113</ele>
        <time>2024-04-10T19:49:09.175Z</time>
      </trkpt>
      <trkpt lat="49.17537" lon="1.34912">
        <ele>13.047323</ele>
        <time>2024-04-10T19:49:11.019Z</time>
      </trkpt>
      <trkpt lat="49.17535" lon="1.34898">
        <ele>13.003251</ele>
        <time>2024-04-10T19:49:12.858Z</time>
      </trkpt>
      <trkpt lat="49.17544" lon="1.34877">
        <ele>12.928211</ele>
        <time>2024-04-10T19:49:15.791Z</time>
      </trkpt>
      <trkpt lat="49.17551" lon="1.34854">
        <ele>12.854428</ele>
        <time>2024-04-10T19:49:18.808Z</time>
      </trkpt>
      <trkpt lat="49.17556" lon="1.34828">
        <ele>12.774753</ele>
        <time>2024-04-10T19:49:22.047Z</time>
      </trkpt>
      <trkpt lat="49.17562" lon="1.34827">
        <ele>12.763385</ele>
        <time>2024-04-10T19:49:23.172Z</time>
      </trkpt>
      <trkpt lat="49.17564" lon="1.34827">
        <ele>12.761507</ele>
        <time>2024-04-10T19:49:23.585Z</time>
      </trkpt>
      <trkpt lat="49.17573" lon="1.34783">
        <ele>12.73341</ele>
        <time>2024-04-10T19:49:29.257Z</time>
      </trkpt>
      <trkpt lat="49.17603" lon="1.34812">
        <ele>12.700182</ele>
        <time>2024-04-10T19:49:36.011Z</time>
      </trkpt>
      <trkpt lat="49.17603" lon="1.34812">
        <ele>12.699671</ele>
        <time>2024-04-10T19:49:36.236Z</time>
      </trkpt>
      <trkpt lat="49.17658" lon="1.34712">
        <ele>12.619442</ele>
        <time>2024-04-10T19:50:12.955Z</time>
      </trkpt>
      <trkpt lat="49.17713" lon="1.34612">
        <ele>12.603103</ele>
        <time>2024-04-10T19:50:49.673Z</time>
      </trkpt>
      <trkpt lat="49.17652" lon="1.3456">
        <ele>12.60644</ele>
        <time>2024-04-10T19:51:19.569Z</time>
      </trkpt>
      <trkpt lat="49.17591" lon="1.34508">
        <ele>12.620958</ele>
        <time>2024-04-10T19:51:49.466Z</time>
      </trkpt>
      <trkpt lat="49.17593" lon="1.34512">
        <ele>12.622457</ele>
        <time>2024-04-10T19:51:50.754Z</time>
      </trkpt>
      <trkpt lat="49.17592" lon="1.34506">
        <ele>12.624315</ele>
        <time>2024-04-10T19:51:51.817Z</time>
      </trkpt>
      <trkpt lat="49.17586" lon="1.34499">
        <ele>12.628178</ele>
        <time>2024-04-10T19:51:53.748Z</time>
      </trkpt>
      <trkpt lat="49.17585" lon="1.34493">
        <ele>12.629954</ele>
        <time>2024-04-10T19:51:54.468Z</time>
      </trkpt>
      <trkpt lat="49.17572" lon="1.34386">
        <ele>12.665178</ele>
        <time>2024-04-10T19:52:08.606Z</time>
      </trkpt>
      <trkpt lat="49.17545" lon="1.34166">
        <ele>12.729731</ele>
        <time>2024-04-10T19:52:36.650Z</time>
      </trkpt>
      <trkpt lat="49.17545" lon="1.34158">
        <ele>12.731582</ele>
        <time>2024-04-10T19:52:37.552Z</time>
      </trkpt>
      <trkpt lat="49.17467" lon="1.34156">
        <ele>12.762346</ele>
        <time>2024-04-10T19:52:52.842Z</time>
      </trkpt>
      <trkpt lat="49.17462" lon="1.34157">
        <ele>12.764121</ele>
        <time>2024-04-10T19:52:53.790Z</time>
      </trkpt>
      <trkpt lat="49.17438" lon="1.34157">
        <ele>12.780265</ele>
        <time>2024-04-10T19:52:58.302Z</time>
      </trkpt>
      <trkpt lat="49.17438" lon="1.34151">
        <ele>12.784083</ele>
        <time>2024-04-10T19:52:59.315Z</time>
      </trkpt>
      <trkpt lat="49.17437" lon="1.34135">
        <ele>12.794171</ele>
        <time>2024-04-10T19:53:02.233Z</time>
      </trkpt>
      <trkpt lat="49.17432" lon="1.34135">
        <ele>12.799159</ele>
        <time>2024-04-10T19:53:03.565Z</time>
      </trkpt>
      <trkpt lat="49.1738" lon="1.34135">
        <ele>12.848078</ele>
        <time>2024-04-10T19:53:16.746Z</time>
      </trkpt>
      <trkpt lat="49.1737" lon="1.34135">
        <ele>12.857401</ele>
        <time>2024-04-10T19:53:19.373Z</time>
      </trkpt>
      <trkpt lat="49.17363" lon="1.34137">
        <ele>12.863949</ele>
        <time>2024-04-10T19:53:21.189Z</time>
      </trkpt>
      <trkpt lat="49.17361" lon="1.34134">
        <ele>12.866681</ele>
        <time>2024-04-10T19:53:21.737Z</time>
      </trkpt>
      <trkpt lat="49.17335" lon="1.34096">
        <ele>12.900444</ele>
        <time>2024-04-10T19:53:28.839Z</time>
      </trkpt>
      <trkpt lat="49.17325" lon="1.34071">
        <ele>12.918165</ele>
        <time>2024-04-10T19:53:32.519Z</time>
      </trkpt>
      <trkpt lat="49.17326" lon="1.34011">
        <ele>13.01166</ele>
        <time>2024-04-10T19:53:40.298Z</time>
      </trkpt>
      <trkpt lat="49.17336" lon="1.33986">
        <ele>13.087382</ele>
        <time>2024-04-10T19:53:44.334Z</time>
      </trkpt>
      <trkpt lat="49.17342" lon="1.33974">
        <ele>13.124521</ele>
        <time>2024-04-10T19:53:46.233Z</time>
      </trkpt>
      <trkpt lat="49.1737" lon="1.33917">
        <ele>13.309187</ele>
        <time>2024-04-10T19:53:56.957Z</time>
      </trkpt>
      <trkpt lat="49.17372" lon="1.33896">
        <ele>13.363771</ele>
        <time>2024-04-10T19:54:00.200Z</time>
      </trkpt>
      <trkpt lat="49.17372" lon="1.33855">
        <ele>13.470486</ele>
        <time>2024-04-10T19:54:06.404Z</time>
      </trkpt>
      <trkpt lat="49.17372" lon="1.33844">
        <ele>13.497034</ele>
        <time>2024-04-10T19:54:08.000Z</time>
      </trkpt>
      <trkpt lat="49.1737" lon="1.33819">
        <ele>13.562456</ele>
        <time>2024-04-10T19:54:11.559Z</time>
      </trkpt>
      <trkpt lat="49.17377" lon="1.33813">
        <ele>13.593717</ele>
        <time>2024-04-10T19:54:13.978Z</time>
      </trkpt>
      <trkpt lat="49.17377" lon="1.33808">
        <ele>13.608155</ele>
        <time>2024-04-10T19:54:15.063Z</time>
      </trkpt>
      <trkpt lat="49.17377" lon="1.33743">
        <ele>13.859245</ele>
        <time>2024-04-10T19:54:26.690Z</time>
      </trkpt>
      <trkpt lat="49.1738" lon="1.3367">
        <ele>14.166383</ele>
        <time>2024-04-10T19:54:39.091Z</time>
      </trkpt>
      <trkpt lat="49.17381" lon="1.33659">
        <ele>14.215697</ele>
        <time>2024-04-10T19:54:41.293Z</time>
      </trkpt>
      <trkpt lat="49.17383" lon="1.33614">
        <ele>14.404882</ele>
        <time>2024-04-10T19:54:49.450Z</time>
      </trkpt>
      <trkpt lat="49.17384" lon="1.3361">
        <ele>14.420981</ele>
        <time>2024-04-10T19:54:51.146Z</time>
      </trkpt>
      <trkpt lat="49.1738" lon="1.3361">
        <ele>14.444479</ele>
        <time>2024-04-10T19:54:53.643Z</time>
      </trkpt>
      <trkpt lat="49.17381" lon="1.3359">
        <ele>14.525839</ele>
        <time>2024-04-10T19:54:56.854Z</time>
      </trkpt>
      <trkpt lat="49.17361" lon="1.33585">
        <ele>14.662665</ele>
        <time>2024-04-10T19:55:02.186Z</time>
      </trkpt>
      <trkpt lat="49.17323" lon="1.33572">
        <ele>15.00489</ele>
        <time>2024-04-10T19:55:11.556Z</time>
      </trkpt>
      <trkpt lat="49.17316" lon="1.33569">
        <ele>15.091948</ele>
        <time>2024-04-10T19:55:13.104Z</time>
      </trkpt>
      <trkpt lat="49.17316" lon="1.33561">
        <ele>15.159886</ele>
        <time>2024-04-10T19:55:14.502Z</time>
      </trkpt>
      <trkpt lat="49.17315" lon="1.33485">
        <ele>15.765638</ele>
        <time>2024-04-10T19:55:27.445Z</time>
      </trkpt>
      <trkpt lat="49.17314" lon="1.33371">
        <ele>16.675956</ele>
        <time>2024-04-10T19:55:46.937Z</time>
      </trkpt>
      <trkpt lat="49.17314" lon="1.33322">
        <ele>17.107265</ele>
        <time>2024-04-10T19:55:55.413Z</time>
      </trkpt>
      <trkpt lat="49.17311" lon="1.33308">
        <ele>17.317605</ele>
        <time>2024-04-10T19:55:58.532Z</time>
      </trkpt>
      <trkpt lat="49.17303" lon="1.33291">
        <ele>17.626915</ele>
        <time>2024-04-10T19:56:02.513Z</time>
      </trkpt>
      <trkpt lat="49.17293" lon="1.33271">
        <ele>17.985325</ele>
        <time>2024-04-10T19:56:07.110Z</time>
      </trkpt>
      <trkpt lat="49.17291" lon="1.33262">
        <ele>18.118096</ele>
        <time>2024-04-10T19:56:09.262Z</time>
      </trkpt>
      <trkpt lat="49.17289" lon="1.3324">
        <ele>18.438134</ele>
        <time>2024-04-10T19:56:13.476Z</time>
      </trkpt>
      <trkpt lat="49.17288" lon="1.33213">
        <ele>18.821009</ele>
        <time>2024-04-10T19:56:18.816Z</time>
      </trkpt>
      <trkpt lat="49.17286" lon="1.33152">
        <ele>19.695299</ele>
        <time>2024-04-10T19:56:31.601Z</time>
      </trkpt>
      <trkpt lat="49.17289" lon="1.3315">
        <ele>19.772126</ele>
        <time>2024-04-10T19:56:32.703Z</time>
      </trkpt>
      <trkpt lat="49.1729" lon="1.33144">
        <ele>19.8702</ele>
        <time>2024-04-10T19:56:34.122Z</time>
      </trkpt>
      <trkpt lat="49.17304" lon="1.33141">
        <ele>20.162425</ele>
        <time>2024-04-10T19:56:38.088Z</time>
      </trkpt>
      <trkpt lat="49.17313" lon="1.33132">
        <ele>20.404891</ele>
        <time>2024-04-10T19:56:41.751Z</time>
      </trkpt>
      <trkpt lat="49.17335" lon="1.33092">
        <ele>21.250033</ele>
        <time>2024-04-10T19:56:53.007Z</time>
      </trkpt>
      <trkpt lat="49.1733" lon="1.33086">
        <ele>21.447196</ele>
        <time>2024-04-10T19:56:56.226Z</time>
      </trkpt>
      <trkpt lat="49.17329" lon="1.33078">
        <ele>21.644043</ele>
        <time>2024-04-10T19:56:58.984Z</time>
      </trkpt>
      <trkpt lat="49.17328" lon="1.33003">
        <ele>23.30285</ele>
        <time>2024-04-10T19:57:22.136Z</time>
      </trkpt>
      <trkpt lat="49.17324" lon="1.32997">
        <ele>23.497616</ele>
        <time>2024-04-10T19:57:24.816Z</time>
      </trkpt>
      <trkpt lat="49.17264" lon="1.32977">
        <ele>25.595798</ele>
        <time>2024-04-10T19:57:56.248Z</time>
      </trkpt>
      <trkpt lat="49.17258" lon="1.32968">
        <ele>25.859872</ele>
        <time>2024-04-10T19:58:00.340Z</time>
      </trkpt>
      <trkpt lat="49.17255" lon="1.32944">
        <ele>26.420367</ele>
        <time>2024-04-10T19:58:08.868Z</time>
      </trkpt>
      <trkpt lat="49.17247" lon="1.32931">
        <ele>26.800031</ele>
        <time>2024-04-10T19:58:15.049Z</time>
      </trkpt>
      <trkpt lat="49.17225" lon="1.32923">
        <ele>27.249599</ele>
        <time>2024-04-10T19:58:26.789Z</time>
      </trkpt>
      <trkpt lat="49.17153" lon="1.32919">
        <ele>28.160447</ele>
        <time>2024-04-10T19:58:59.132Z</time>
      </trkpt>
      <trkpt lat="49.17125" lon="1.32919">
        <ele>28.525624</ele>
        <time>2024-04-10T19:59:10.235Z</time>
      </trkpt>
      <trkpt lat="49.17066" lon="1.32909">
        <ele>29.286766</ele>
        <time>2024-04-10T19:59:27.954Z</time>
      </trkpt>
      <trkpt lat="49.17024" lon="1.32912">
        <ele>28.287247</ele>
        <time>2024-04-10T19:59:39.654Z</time>
      </trkpt>
      <trkpt lat="49.17027" lon="1.32935">
        <ele>27.873718</ele>
        <time>2024-04-10T19:59:41.924Z</time>
      </trkpt>
      <trkpt lat="49.17024" lon="1.32978">
        <ele>27.083384</ele>
        <time>2024-04-10T19:59:46.592Z</time>
      </trkpt>
      <trkpt lat="49.17021" lon="1.32995">
        <ele>26.768001</ele>
        <time>2024-04-10T19:59:48.311Z</time>
      </trkpt>
      <trkpt lat="49.17009" lon="1.33034">
        <ele>25.978976</ele>
        <time>2024-04-10T19:59:52.512Z</time>
      </trkpt>
      <trkpt lat="49.17007" lon="1.33041">
        <ele>25.84672</ele>
        <time>2024-04-10T19:59:53.226Z</time>
      </trkpt>
      <trkpt lat="49.16974" lon="1.33036">
        <ele>24.942846</ele>
        <time>2024-04-10T19:59:58.042Z</time>
      </trkpt>
      <trkpt lat="49.16934" lon="1.33046">
        <ele>24.046688</ele>
        <time>2024-04-10T20:00:04.076Z</time>
      </trkpt>
      <trkpt lat="49.16853" lon="1.33056">
        <ele>22.729529</ele>
        <time>2024-04-10T20:00:17.257Z</time>
      </trkpt>
      <trkpt lat="49.16815" lon="1.33072">
        <ele>22.096905</ele>
        <time>2024-04-10T20:00:24.735Z</time>
      </trkpt>
      <trkpt lat="49.16767" lon="1.33089">
        <ele>21.631595</ele>
        <time>2024-04-10T20:00:34.385Z</time>
      </trkpt>
      <trkpt lat="49.16754" lon="1.3309">
        <ele>21.875567</ele>
        <time>2024-04-10T20:00:36.973Z</time>
      </trkpt>
      <trkpt lat="49.16728" lon="1.33086">
        <ele>22.354254</ele>
        <time>2024-04-10T20:00:42.609Z</time>
      </trkpt>
      <trkpt lat="49.16667" lon="1.33075">
        <ele>23.481812</ele>
        <time>2024-04-10T20:00:59.021Z</time>
      </trkpt>
      <trkpt lat="49.16596" lon="1.3306">
        <ele>24.810287</ele>
        <time>2024-04-10T20:01:26.766Z</time>
      </trkpt>
      <trkpt lat="49.16568" lon="1.33055">
        <ele>25.577791</ele>
        <time>2024-04-10T20:01:38.110Z</time>
      </trkpt>
      <trkpt lat="49.16522" lon="1.33043">
        <ele>26.839912</ele>
        <time>2024-04-10T20:01:55.500Z</time>
      </trkpt>
      <trkpt lat="49.16486" lon="1.33021">
        <ele>27.882496</ele>
        <time>2024-04-10T20:02:09.235Z</time>
      </trkpt>
      <trkpt lat="49.16296" lon="1.33052">
        <ele>30.959991</ele>
        <time>2024-04-10T20:03:02.036Z</time>
      </trkpt>
      <trkpt lat="49.16182" lon="1.3307">
        <ele>32.233618</ele>
        <time>2024-04-10T20:03:25.115Z</time>
      </trkpt>
      <trkpt lat="49.16171" lon="1.33059">
        <ele>32.379282</ele>
        <time>2024-04-10T20:03:32.248Z</time>
      </trkpt>
      <trkpt lat="49.1614" lon="1.33062">
        <ele>32.739171</ele>
        <time>2024-04-10T20:03:44.304Z</time>
      </trkpt>
      <trkpt lat="49.16125" lon="1.33063">
        <ele>32.91226</ele>
        <time>2024-04-10T20:03:49.901Z</time>
      </trkpt>
      <trkpt lat="49.16083" lon="1.3304">
        <ele>33.41555</ele>
        <time>2024-04-10T20:04:20.461Z</time>
      </trkpt>
      <trkpt lat="49.16078" lon="1.33033">
        <ele>33.494196</ele>
        <time>2024-04-10T20:04:25.232Z</time>
      </trkpt>
      <trkpt lat="49.16071" lon="1.33018">
        <ele>33.587079</ele>
        <time>2024-04-10T20:04:33.982Z</time>
      </trkpt>
      <trkpt lat="49.16067" lon="1.33004">
        <ele>33.593364</ele>
        <time>2024-04-10T20:04:40.824Z</time>
      </trkpt>
      <trkpt lat="49.16069" lon="1.32986">
        <ele>33.60082</ele>
        <time>2024-04-10T20:04:48.907Z</time>
      </trkpt>
      <trkpt lat="49.16072" lon="1.32976">
        <ele>33.605689</ele>
        <time>2024-04-10T20:04:54.220Z</time>
      </trkpt>
      <trkpt lat="49.16071" lon="1.32971">
        <ele>33.608015</ele>
        <time>2024-04-10T20:04:55.763Z</time>
      </trkpt>
      <trkpt lat="49.16076" lon="1.32923">
        <ele>33.628228</ele>
        <time>2024-04-10T20:05:02.857Z</time>
      </trkpt>
      <trkpt lat="49.16083" lon="1.32865">
        <ele>33.652982</ele>
        <time>2024-04-10T20:05:11.202Z</time>
      </trkpt>
      <trkpt lat="49.16086" lon="1.32826">
        <ele>33.669182</ele>
        <time>2024-04-10T20:05:15.276Z</time>
      </trkpt>
      <trkpt lat="49.16083" lon="1.32817">
        <ele>33.673223</ele>
        <time>2024-04-10T20:05:17.576Z</time>
      </trkpt>
      <trkpt lat="49.16056" lon="1.32875">
        <ele>33.566029</ele>
        <time>2024-04-10T20:05:26.222Z</time>
      </trkpt>
      <trkpt lat="49.16053" lon="1.32882">
        <ele>33.451883</ele>
        <time>2024-04-10T20:05:27.114Z</time>
      </trkpt>
      <trkpt lat="49.16013" lon="1.32857">
        <ele>32.527093</ele>
        <time>2024-04-10T20:05:33.869Z</time>
      </trkpt>
      <trkpt lat="49.16003" lon="1.32902">
        <ele>31.854721</ele>
        <time>2024-04-10T20:05:40.231Z</time>
      </trkpt>
      <trkpt lat="49.15998" lon="1.32924">
        <ele>31.533943</ele>
        <time>2024-04-10T20:05:43.122Z</time>
      </trkpt>
      <trkpt lat="49.15978" lon="1.32915">
        <ele>31.095225</ele>
        <time>2024-04-10T20:05:47.295Z</time>
      </trkpt>
      <trkpt lat="49.15977" lon="1.3294">
        <ele>30.742501</ele>
        <time>2024-04-10T20:05:49.756Z</time>
      </trkpt>
      <trkpt lat="49.15965" lon="1.32962">
        <ele>30.342786</ele>
        <time>2024-04-10T20:05:52.809Z</time>
      </trkpt>
      <trkpt lat="49.1596" lon="1.32978">
        <ele>30.09036</ele>
        <time>2024-04-10T20:05:54.588Z</time>
      </trkpt>
      <trkpt lat="49.15956" lon="1.33003">
        <ele>29.830207</ele>
        <time>2024-04-10T20:05:57.314Z</time>
      </trkpt>
      <trkpt lat="49.15955" lon="1.33064">
        <ele>29.807052</ele>
        <time>2024-04-10T20:06:05.428Z</time>
      </trkpt>
      <trkpt lat="49.15959" lon="1.33103">
        <ele>29.792343</ele>
        <time>2024-04-10T20:06:11.265Z</time>
      </trkpt>
      <trkpt lat="49.15969" lon="1.33149">
        <ele>29.774062</ele>
        <time>2024-04-10T20:06:18.263Z</time>
      </trkpt>
      <trkpt lat="49.15929" lon="1.33142">
        <ele>29.751062</ele>
        <time>2024-04-10T20:06:26.422Z</time>
      </trkpt>
      <trkpt lat="49.15893" lon="1.33136">
        <ele>29.730432</ele>
        <time>2024-04-10T20:06:34.179Z</time>
      </trkpt>
      <trkpt lat="49.15894" lon="1.33115">
        <ele>29.683826</ele>
        <time>2024-04-10T20:06:43.633Z</time>
      </trkpt>
      <trkpt lat="49.15897" lon="1.33104">
        <ele>29.653389</ele>
        <time>2024-04-10T20:06:49.005Z</time>
      </trkpt>
      <trkpt lat="49.15894" lon="1.33115">
        <ele>29.622951</ele>
        <time>2024-04-10T20:06:54.376Z</time>
      </trkpt>
      <trkpt lat="49.15893" lon="1.33136">
        <ele>29.569005</ele>
        <time>2024-04-10T20:07:03.830Z</time>
      </trkpt>
      <trkpt lat="49.15886" lon="1.33135">
        <ele>29.53968</ele>
        <time>2024-04-10T20:07:05.827Z</time>
      </trkpt>
      <trkpt lat="49.15883" lon="1.33139">
        <ele>29.524106</ele>
        <time>2024-04-10T20:07:07.004Z</time>
      </trkpt>
      <trkpt lat="49.15867" lon="1.33194">
        <ele>29.367458</ele>
        <time>2024-04-10T20:07:17.486Z</time>
      </trkpt>
      <trkpt lat="49.15857" lon="1.33238">
        <ele>29.247868</ele>
        <time>2024-04-10T20:07:25.017Z</time>
      </trkpt>
      <trkpt lat="49.15847" lon="1.33296">
        <ele>29.092238</ele>
        <time>2024-04-10T20:07:36.044Z</time>
      </trkpt>
      <trkpt lat="49.1584" lon="1.33321">
        <ele>29.02055</ele>
        <time>2024-04-10T20:07:40.741Z</time>
      </trkpt>
      <trkpt lat="49.15814" lon="1.33375">
        <ele>27.748749</ele>
        <time>2024-04-10T20:07:47.327Z</time>
      </trkpt>
      <trkpt lat="49.15801" lon="1.33394">
        <ele>27.210074</ele>
        <time>2024-04-10T20:07:49.999Z</time>
      </trkpt>
      <trkpt lat="49.158" lon="1.33402">
        <ele>27.070794</ele>
        <time>2024-04-10T20:07:50.731Z</time>
      </trkpt>
      <trkpt lat="49.15878" lon="1.33496">
        <ele>24.125822</ele>
        <time>2024-04-10T20:08:04.951Z</time>
      </trkpt>
      <trkpt lat="49.1586" lon="1.33562">
        <ele>23.688769</ele>
        <time>2024-04-10T20:08:12.308Z</time>
      </trkpt>
      <trkpt lat="49.15836" lon="1.33612">
        <ele>23.696384</ele>
        <time>2024-04-10T20:08:19.672Z</time>
      </trkpt>
      <trkpt lat="49.15804" lon="1.33662">
        <ele>23.705132</ele>
        <time>2024-04-10T20:08:31.052Z</time>
      </trkpt>
      <trkpt lat="49.15796" lon="1.33677">
        <ele>23.707443</ele>
        <time>2024-04-10T20:08:34.413Z</time>
      </trkpt>
      <trkpt lat="49.15796" lon="1.33684">
        <ele>23.70821</ele>
        <time>2024-04-10T20:08:35.477Z</time>
      </trkpt>
      <trkpt lat="49.15779" lon="1.33691">
        <ele>23.711571</ele>
        <time>2024-04-10T20:08:40.797Z</time>
      </trkpt>
      <trkpt lat="49.15764" lon="1.33697">
        <ele>23.714567</ele>
        <time>2024-04-10T20:08:45.011Z</time>
      </trkpt>
      <trkpt lat="49.15698" lon="1.3372">
        <ele>24.176722</ele>
        <time>2024-04-10T20:09:04.212Z</time>
      </trkpt>
      <trkpt lat="49.1566" lon="1.33726">
        <ele>24.497337</ele>
        <time>2024-04-10T20:09:14.222Z</time>
      </trkpt>
      <trkpt lat="49.1565" lon="1.33728">
        <ele>24.581386</ele>
        <time>2024-04-10T20:09:16.813Z</time>
      </trkpt>
      <trkpt lat="49.15642" lon="1.33729">
        <ele>24.648772</ele>
        <time>2024-04-10T20:09:18.987Z</time>
      </trkpt>
      <trkpt lat="49.15639" lon="1.3375">
        <ele>24.769055</ele>
        <time>2024-04-10T20:09:22.248Z</time>
      </trkpt>
      <trkpt lat="49.15641" lon="1.33754">
        <ele>24.797939</ele>
        <time>2024-04-10T20:09:23.133Z</time>
      </trkpt>
      <trkpt lat="49.15647" lon="1.33765">
        <ele>24.87165</ele>
        <time>2024-04-10T20:09:25.283Z</time>
      </trkpt>
      <trkpt lat="49.15655" lon="1.33792">
        <ele>25.033667</ele>
        <time>2024-04-10T20:09:29.383Z</time>
      </trkpt>
      <trkpt lat="49.15668" lon="1.33867">
        <ele>24.865856</ele>
        <time>2024-04-10T20:09:38.419Z</time>
      </trkpt>
      <trkpt lat="49.15676" lon="1.33923">
        <ele>24.431587</ele>
        <time>2024-04-10T20:09:44.685Z</time>
      </trkpt>
      <trkpt lat="49.15685" lon="1.33952">
        <ele>24.185508</ele>
        <time>2024-04-10T20:09:48.116Z</time>
      </trkpt>
      <trkpt lat="49.1567" lon="1.33985">
        <ele>23.883765</ele>
        <time>2024-04-10T20:09:52.457Z</time>
      </trkpt>
      <trkpt lat="49.15663" lon="1.33998">
        <ele>23.756757</ele>
        <time>2024-04-10T20:09:54.350Z</time>
      </trkpt>
      <trkpt lat="49.15652" lon="1.34018">
        <ele>23.557742</ele>
        <time>2024-04-10T20:09:57.149Z</time>
      </trkpt>
      <trkpt lat="49.15634" lon="1.34043">
        <ele>23.272541</ele>
        <time>2024-04-10T20:10:01.262Z</time>
      </trkpt>
      <trkpt lat="49.15597" lon="1.34091">
        <ele>23.274879</ele>
        <time>2024-04-10T20:10:10.181Z</time>
      </trkpt>
      <trkpt lat="49.15597" lon="1.34092">
        <ele>23.280338</ele>
        <time>2024-04-10T20:10:10.752Z</time>
      </trkpt>
      <trkpt lat="49.15566" lon="1.3412">
        <ele>23.430282</ele>
        <time>2024-04-10T20:10:26.224Z</time>
      </trkpt>
      <trkpt lat="49.15521" lon="1.34087">
        <ele>23.638355</ele>
        <time>2024-04-10T20:10:47.695Z</time>
      </trkpt>
      <trkpt lat="49.15481" lon="1.34046">
        <ele>23.836012</ele>
        <time>2024-04-10T20:11:08.065Z</time>
      </trkpt>
      <trkpt lat="49.15442" lon="1.34006">
        <ele>23.797509</ele>
        <time>2024-04-10T20:11:28.435Z</time>
      </trkpt>
      <trkpt lat="49.15422" lon="1.34075">
        <ele>23.704347</ele>
        <time>2024-04-10T20:11:49.451Z</time>
      </trkpt>
      <trkpt lat="49.15376" lon="1.34175">
        <ele>23.552118</ele>
        <time>2024-04-10T20:12:23.792Z</time>
      </trkpt>
      <trkpt lat="49.15375" lon="1.34173">
        <ele>23.548579</ele>
        <time>2024-04-10T20:12:24.587Z</time>
      </trkpt>
      <trkpt lat="49.15338" lon="1.34203">
        <ele>23.348983</ele>
        <time>2024-04-10T20:12:31.820Z</time>
      </trkpt>
      <trkpt lat="49.1533" lon="1.34219">
        <ele>23.276977</ele>
        <time>2024-04-10T20:12:35.504Z</time>
      </trkpt>
      <trkpt lat="49.15314" lon="1.34262">
        <ele>23.097176</ele>
        <time>2024-04-10T20:12:44.813Z</time>
      </trkpt>
      <trkpt lat="49.15249" lon="1.34395">
        <ele>22.620465</ele>
        <time>2024-04-10T20:13:17.862Z</time>
      </trkpt>
      <trkpt lat="49.15214" lon="1.34453">
        <ele>23.393677</ele>
        <time>2024-04-10T20:13:37.015Z</time>
      </trkpt>
      <trkpt lat="49.15188" lon="1.345">
        <ele>23.98909</ele>
        <time>2024-04-10T20:13:53.210Z</time>
      </trkpt>
      <trkpt lat="49.15175" lon="1.34528">
        <ele>24.3211</ele>
        <time>2024-04-10T20:14:02.612Z</time>
      </trkpt>
      <trkpt lat="49.14977" lon="1.34797">
        <ele>29.714546</ele>
        <time>2024-04-10T20:15:57.610Z</time>
      </trkpt>
      <trkpt lat="49.14979" lon="1.34842">
        <ele>30.240475</ele>
        <time>2024-04-10T20:16:05.155Z</time>
      </trkpt>
      <trkpt lat="49.14984" lon="1.34868">
        <ele>30.559952</ele>
        <time>2024-04-10T20:16:09.738Z</time>
      </trkpt>
      <trkpt lat="49.14986" lon="1.34897">
        <ele>30.900388</ele>
        <time>2024-04-10T20:16:15.288Z</time>
      </trkpt>
      <trkpt lat="49.14968" lon="1.34906">
        <ele>31.231435</ele>
        <time>2024-04-10T20:16:19.464Z</time>
      </trkpt>
      <trkpt lat="49.14966" lon="1.34899">
        <ele>31.319381</ele>
        <time>2024-04-10T20:16:20.747Z</time>
      </trkpt>
      <trkpt lat="49.14961" lon="1.34897">
        <ele>31.403503</ele>
        <time>2024-04-10T20:16:22.064Z</time>
      </trkpt>
      <trkpt lat="49.14956" lon="1.34904">
        <ele>31.531566</ele>
        <time>2024-04-10T20:16:24.253Z</time>
      </trkpt>
      <trkpt lat="49.14894" lon="1.34882">
        <ele>32.880498</ele>
        <time>2024-04-10T20:16:41.251Z</time>
      </trkpt>
      <trkpt lat="49.14854" lon="1.34876">
        <ele>34.343952</ele>
        <time>2024-04-10T20:16:55.504Z</time>
      </trkpt>
      <trkpt lat="49.14826" lon="1.34854">
        <ele>35.487516</ele>
        <time>2024-04-10T20:17:08.455Z</time>
      </trkpt>
      <trkpt lat="49.14801" lon="1.34826">
        <ele>36.628913</ele>
        <time>2024-04-10T20:17:25.718Z</time>
      </trkpt>
      <trkpt lat="49.14776" lon="1.34805">
        <ele>37.674249</ele>
        <time>2024-04-10T20:17:41.300Z</time>
      </trkpt>
      <trkpt lat="49.14764" lon="1.34809">
        <ele>38.131537</ele>
        <time>2024-04-10T20:17:47.998Z</time>
      </trkpt>
      <trkpt lat="49.14702" lon="1.34852">
        <ele>40.082542</ele>
        <time>2024-04-10T20:18:22.374Z</time>
      </trkpt>
      <trkpt lat="49.14618" lon="1.3484">
        <ele>42.111757</ele>
        <time>2024-04-10T20:18:59.582Z</time>
      </trkpt>
      <trkpt lat="49.14555" lon="1.34842">
        <ele>43.484672</ele>
        <time>2024-04-10T20:19:23.430Z</time>
      </trkpt>
      <trkpt lat="49.14446" lon="1.34875">
        <ele>44.453567</ele>
        <time>2024-04-10T20:20:01.020Z</time>
      </trkpt>
      <trkpt lat="49.1441" lon="1.34898">
        <ele>44.789737</ele>
        <time>2024-04-10T20:20:14.989Z</time>
      </trkpt>
      <trkpt lat="49.14396" lon="1.34913">
        <ele>44.938121</ele>
        <time>2024-04-10T20:20:21.449Z</time>
      </trkpt>
      <trkpt lat="49.1436" lon="1.34934">
        <ele>46.276541</ele>
        <time>2024-04-10T20:20:36.819Z</time>
      </trkpt>
      <trkpt lat="49.14334" lon="1.34939">
        <ele>47.253569</ele>
        <time>2024-04-10T20:20:48.827Z</time>
      </trkpt>
      <trkpt lat="49.14294" lon="1.34927">
        <ele>48.719562</ele>
        <time>2024-04-10T20:21:08.387Z</time>
      </trkpt>
      <trkpt lat="49.14289" lon="1.34967">
        <ele>49.674331</ele>
        <time>2024-04-10T20:21:22.426Z</time>
      </trkpt>
      <trkpt lat="49.14279" lon="1.34989">
        <ele>50.326309</ele>
        <time>2024-04-10T20:21:31.719Z</time>
      </trkpt>
      <trkpt lat="49.14264" lon="1.35003">
        <ele>50.959123</ele>
        <time>2024-04-10T20:21:42.074Z</time>
      </trkpt>
      <trkpt lat="49.14252" lon="1.35005">
        <ele>51.409263</ele>
        <time>2024-04-10T20:21:49.046Z</time>
      </trkpt>
      <trkpt lat="49.14246" lon="1.35006">
        <ele>51.780653</ele>
        <time>2024-04-10T20:21:52.380Z</time>
      </trkpt>
      <trkpt lat="49.1424" lon="1.35003">
        <ele>52.389012</ele>
        <time>2024-04-10T20:21:56.420Z</time>
      </trkpt>
      <trkpt lat="49.14232" lon="1.35014">
        <ele>53.348627</ele>
        <time>2024-04-10T20:22:03.712Z</time>
      </trkpt>
      <trkpt lat="49.1419" lon="1.35019">
        <ele>57.154488</ele>
        <time>2024-04-10T20:22:32.762Z</time>
      </trkpt>
      <trkpt lat="49.14175" lon="1.35012">
        <ele>58.586751</ele>
        <time>2024-04-10T20:22:44.550Z</time>
      </trkpt>
      <trkpt lat="49.14156" lon="1.34996">
        <ele>60.618067</ele>
        <time>2024-04-10T20:23:03.595Z</time>
      </trkpt>
      <trkpt lat="49.14143" lon="1.34996">
        <ele>61.776333</ele>
        <time>2024-04-10T20:23:13.637Z</time>
      </trkpt>
      <trkpt lat="49.14115" lon="1.35005">
        <ele>64.406848</ele>
        <time>2024-04-10T20:23:38.672Z</time>
      </trkpt>
      <trkpt lat="49.14076" lon="1.34997">
        <ele>67.998421</ele>
        <time>2024-04-10T20:24:13.241Z</time>
      </trkpt>
      <trkpt lat="49.1406" lon="1.35">
        <ele>69.673187</ele>
        <time>2024-04-10T20:24:27.263Z</time>
      </trkpt>
      <trkpt lat="49.14032" lon="1.35063">
        <ele>74.949659</ele>
        <time>2024-04-10T20:25:12.422Z</time>
      </trkpt>
      <trkpt lat="49.13999" lon="1.35077">
        <ele>78.520818</ele>
        <time>2024-04-10T20:25:42.748Z</time>
      </trkpt>
      <trkpt lat="49.13893" lon="1.35089">
        <ele>88.394553</ele>
        <time>2024-04-10T20:27:09.090Z</time>
      </trkpt>
      <trkpt lat="49.13857" lon="1.35103">
        <ele>90.53604</ele>
        <time>2024-04-10T20:27:33.242Z</time>
      </trkpt>
      <trkpt lat="49.13751" lon="1.351">
        <ele>96.680098</ele>
        <time>2024-04-10T20:28:30.760Z</time>
      </trkpt>
      <trkpt lat="49.13739" lon="1.35086">
        <ele>97.46728</ele>
        <time>2024-04-10T20:28:37.674Z</time>
      </trkpt>
      <trkpt lat="49.13711" lon="1.35085">
        <ele>98.678051</ele>
        <time>2024-04-10T20:28:51.169Z</time>
      </trkpt>
      <trkpt lat="49.13676" lon="1.35085">
        <ele>100.1904</ele>
        <time>2024-04-10T20:29:07.957Z</time>
      </trkpt>
      <trkpt lat="49.13628" lon="1.35079">
        <ele>102.243235</ele>
        <time>2024-04-10T20:29:32.250Z</time>
      </trkpt>
      <trkpt lat="49.13584" lon="1.35081">
        <ele>104.152503</ele>
        <time>2024-04-10T20:29:57.050Z</time>
      </trkpt>
      <trkpt lat="49.13571" lon="1.35086">
        <ele>104.735983</ele>
        <time>2024-04-10T20:30:05.414Z</time>
      </trkpt>
      <trkpt lat="49.13547" lon="1.35108">
        <ele>106.40437</ele>
        <time>2024-04-10T20:30:22.042Z</time>
      </trkpt>
      <trkpt lat="49.13515" lon="1.35161">
        <ele>109.428346</ele>
        <time>2024-04-10T20:30:52.540Z</time>
      </trkpt>
      <trkpt lat="49.13499" lon="1.35179">
        <ele>110.725877</ele>
        <time>2024-04-10T20:31:06.007Z</time>
      </trkpt>
      <trkpt lat="49.13516" lon="1.35204">
        <ele>112.224026</ele>
        <time>2024-04-10T20:31:22.535Z</time>
      </trkpt>
      <trkpt lat="49.13514" lon="1.35214">
        <ele>112.686225</ele>
        <time>2024-04-10T20:31:27.355Z</time>
      </trkpt>
      <trkpt lat="49.13532" lon="1.35283">
        <ele>115.798333</ele>
        <time>2024-04-10T20:31:59.862Z</time>
      </trkpt>
      <trkpt lat="49.13552" lon="1.35388">
        <ele>118.458625</ele>
        <time>2024-04-10T20:32:42.163Z</time>
      </trkpt>
      <trkpt lat="49.1356" lon="1.35421">
        <ele>119.211177</ele>
        <time>2024-04-10T20:32:54.677Z</time>
      </trkpt>
      <trkpt lat="49.13554" lon="1.35471">
        <ele>120.275222</ele>
        <time>2024-04-10T20:33:09.898Z</time>
      </trkpt>
      <trkpt lat="49.13538" lon="1.35491">
        <ele>120.953478</ele>
        <time>2024-04-10T20:33:18.213Z</time>
      </trkpt>
      <trkpt lat="49.13538" lon="1.355">
        <ele>121.135295</ele>
        <time>2024-04-10T20:33:20.353Z</time>
      </trkpt>
      <trkpt lat="49.13473" lon="1.35463">
        <ele>121.704108</ele>
        <time>2024-04-10T20:33:43.352Z</time>
      </trkpt>
      <trkpt lat="49.13468" lon="1.3546">
        <ele>121.599707</ele>
        <time>2024-04-10T20:33:44.910Z</time>
      </trkpt>
      <trkpt lat="49.13453" lon="1.35458">
        <ele>121.294513</ele>
        <time>2024-04-10T20:33:49.354Z</time>
      </trkpt>
      <trkpt lat="49.1346" lon="1.35479">
        <ele>120.980104</ele>
        <time>2024-04-10T20:33:53.822Z</time>
      </trkpt>
      <trkpt lat="49.1344" lon="1.3554">
        <ele>120.101073</ele>
        <time>2024-04-10T20:34:05.764Z</time>
      </trkpt>
      <trkpt lat="49.13463" lon="1.35537">
        <ele>119.645835</ele>
        <time>2024-04-10T20:34:11.896Z</time>
      </trkpt>
      <trkpt lat="49.135" lon="1.35541">
        <ele>118.914423</ele>
        <time>2024-04-10T20:34:21.460Z</time>
      </trkpt>
      <trkpt lat="49.13504" lon="1.35589">
        <ele>117.897398</ele>
        <time>2024-04-10T20:34:29.326Z</time>
      </trkpt>
      <trkpt lat="49.13542" lon="1.35881">
        <ele>112.49952</ele>
        <time>2024-04-10T20:35:18.653Z</time>
      </trkpt>
      <trkpt lat="49.1355" lon="1.35936">
        <ele>112.51608</ele>
        <time>2024-04-10T20:35:29.491Z</time>
      </trkpt>
      <trkpt lat="49.13538" lon="1.35923">
        <ele>112.522501</ele>
        <time>2024-04-10T20:35:34.106Z</time>
      </trkpt>
      <trkpt lat="49.13415" lon="1.35904">
        <ele>113.723486</ele>
        <time>2024-04-10T20:36:26.281Z</time>
      </trkpt>
      <trkpt lat="49.13392" lon="1.35891">
        <ele>114.545279</ele>
        <time>2024-04-10T20:36:39.213Z</time>
      </trkpt>
      <trkpt lat="49.13371" lon="1.35872">
        <ele>115.361708</ele>
        <time>2024-04-10T20:36:52.560Z</time>
      </trkpt>
      <trkpt lat="49.1327" lon="1.35821">
        <ele>118.759717</ele>
        <time>2024-04-10T20:37:46.308Z</time>
      </trkpt>
      <trkpt lat="49.13175" lon="1.35781">
        <ele>120.597013</ele>
        <time>2024-04-10T20:38:28.204Z</time>
      </trkpt>
      <trkpt lat="49.13104" lon="1.358">
        <ele>121.922208</ele>
        <time>2024-04-10T20:38:54.802Z</time>
      </trkpt>
      <trkpt lat="49.13144" lon="1.35973">
        <ele>122.502313</ele>
        <time>2024-04-10T20:39:34.455Z</time>
      </trkpt>
      <trkpt lat="49.13182" lon="1.36096">
        <ele>123.287471</ele>
        <time>2024-04-10T20:40:04.469Z</time>
      </trkpt>
      <trkpt lat="49.13185" lon="1.36113">
        <ele>123.47549</ele>
        <time>2024-04-10T20:40:08.516Z</time>
      </trkpt>
      <trkpt lat="49.1324" lon="1.36385">
        <ele>126.881026</ele>
        <time>2024-04-10T20:41:26.835Z</time>
      </trkpt>
      <trkpt lat="49.13199" lon="1.36435">
        <ele>128.111333</ele>
        <time>2024-04-10T20:41:50.974Z</time>
      </trkpt>
      <trkpt lat="49.13173" lon="1.36458">
        <ele>128.808939</ele>
        <time>2024-04-10T20:42:04.306Z</time>
      </trkpt>
      <trkpt lat="49.13133" lon="1.36478">
        <ele>129.789053</ele>
        <time>2024-04-10T20:42:22.799Z</time>
      </trkpt>
      <trkpt lat="49.13126" lon="1.36487">
        <ele>129.978631</ele>
        <time>2024-04-10T20:42:26.629Z</time>
      </trkpt>
      <trkpt lat="49.13121" lon="1.36489">
        <ele>130.019409</ele>
        <time>2024-04-10T20:42:28.631Z</time>
      </trkpt>
      <trkpt lat="49.13169" lon="1.36546">
        <ele>130.552443</ele>
        <time>2024-04-10T20:42:54.548Z</time>
      </trkpt>
      <trkpt lat="49.13233" lon="1.36586">
        <ele>131.158864</ele>
        <time>2024-04-10T20:43:24.027Z</time>
      </trkpt>
      <trkpt lat="49.13296" lon="1.36626">
        <ele>131.480859</ele>
        <time>2024-04-10T20:43:53.506Z</time>
      </trkpt>
      <trkpt lat="49.1336" lon="1.36665">
        <ele>131.320553</ele>
        <time>2024-04-10T20:44:22.985Z</time>
      </trkpt>
      <trkpt lat="49.13424" lon="1.36705">
        <ele>131.160188</ele>
        <time>2024-04-10T20:44:52.464Z</time>
      </trkpt>
      <trkpt lat="49.13489" lon="1.36755">
        <ele>131.028926</ele>
        <time>2024-04-10T20:45:23.525Z</time>
      </trkpt>
      <trkpt lat="49.13554" lon="1.36806">
        <ele>130.908648</ele>
        <time>2024-04-10T20:45:54.587Z</time>
      </trkpt>
      <trkpt lat="49.13618" lon="1.36856">
        <ele>130.829568</ele>
        <time>2024-04-10T20:46:25.648Z</time>
      </trkpt>
      <trkpt lat="49.13648" lon="1.36907">
        <ele>130.840779</ele>
        <time>2024-04-10T20:46:44.682Z</time>
      </trkpt>
      <trkpt lat="49.1358" lon="1.36947">
        <ele>130.85909</ele>
        <time>2024-04-10T20:47:15.784Z</time>
      </trkpt>
      <trkpt lat="49.13512" lon="1.36987">
        <ele>130.988484</ele>
        <time>2024-04-10T20:47:46.885Z</time>
      </trkpt>
      <trkpt lat="49.13445" lon="1.37027">
        <ele>131.261644</ele>
        <time>2024-04-10T20:48:17.987Z</time>
      </trkpt>
      <trkpt lat="49.13445" lon="1.37028">
        <ele>131.264802</ele>
        <time>2024-04-10T20:48:18.337Z</time>
      </trkpt>
      <trkpt lat="49.13398" lon="1.37054">
        <ele>131.454007</ele>
        <time>2024-04-10T20:48:35.623Z</time>
      </trkpt>
      <trkpt lat="49.13328" lon="1.37346">
        <ele>132.521353</ele>
        <time>2024-04-10T20:49:46.393Z</time>
      </trkpt>
      <trkpt lat="49.13304" lon="1.37452">
        <ele>132.461445</ele>
        <time>2024-04-10T20:50:02.205Z</time>
      </trkpt>
      <trkpt lat="49.13261" lon="1.37684">
        <ele>131.676372</ele>
        <time>2024-04-10T20:50:32.344Z</time>
      </trkpt>
      <trkpt lat="49.13258" lon="1.3772">
        <ele>131.356059</ele>
        <time>2024-04-10T20:50:36.549Z</time>
      </trkpt>
      <trkpt lat="49.13289" lon="1.37882">
        <ele>129.804473</ele>
        <time>2024-04-10T20:50:55.060Z</time>
      </trkpt>
      <trkpt lat="49.13317" lon="1.38084">
        <ele>126.722471</ele>
        <time>2024-04-10T20:51:16.334Z</time>
      </trkpt>
      <trkpt lat="49.13327" lon="1.38167">
        <ele>125.763738</ele>
        <time>2024-04-10T20:51:25.356Z</time>
      </trkpt>
      <trkpt lat="49.13334" lon="1.3831">
        <ele>125.561754</ele>
        <time>2024-04-10T20:51:42.898Z</time>
      </trkpt>
      <trkpt lat="49.13344" lon="1.38399">
        <ele>125.434474</ele>
        <time>2024-04-10T20:51:57.364Z</time>
      </trkpt>
      <trkpt lat="49.1335" lon="1.38468">
        <ele>125.715954</ele>
        <time>2024-04-10T20:52:10.001Z</time>
      </trkpt>
      <trkpt lat="49.13361" lon="1.3855">
        <ele>126.215994</ele>
        <time>2024-04-10T20:52:24.917Z</time>
      </trkpt>
      <trkpt lat="49.1339" lon="1.38651">
        <ele>126.87802</ele>
        <time>2024-04-10T20:52:43.015Z</time>
      </trkpt>
      <trkpt lat="49.13399" lon="1.38649">
        <ele>126.965409</ele>
        <time>2024-04-10T20:52:46.175Z</time>
      </trkpt>
      <trkpt lat="49.13427" lon="1.38663">
        <ele>126.864856</ele>
        <time>2024-04-10T20:52:55.257Z</time>
      </trkpt>
      <trkpt lat="49.1347" lon="1.3871">
        <ele>126.336564</ele>
        <time>2024-04-10T20:53:11.059Z</time>
      </trkpt>
      <trkpt lat="49.13595" lon="1.38864">
        <ele>124.224548</ele>
        <time>2024-04-10T20:53:56.329Z</time>
      </trkpt>
      <trkpt lat="49.13713" lon="1.38986">
        <ele>121.088529</ele>
        <time>2024-04-10T20:54:35.359Z</time>
      </trkpt>
      <trkpt lat="49.13784" lon="1.39017">
        <ele>118.123253</ele>
        <time>2024-04-10T20:54:54.272Z</time>
      </trkpt>
      <trkpt lat="49.13912" lon="1.39049">
        <ele>112.054772</ele>
        <time>2024-04-10T20:55:25.525Z</time>
      </trkpt>
      <trkpt lat="49.13954" lon="1.3903">
        <ele>109.327559</ele>
        <time>2024-04-10T20:55:35.713Z</time>
      </trkpt>
      <trkpt lat="49.14021" lon="1.39014">
        <ele>105.101125</ele>
        <time>2024-04-10T20:55:51.398Z</time>
      </trkpt>
      <trkpt lat="49.14172" lon="1.39053">
        <ele>93.186442</ele>
        <time>2024-04-10T20:56:11.715Z</time>
      </trkpt>
      <trkpt lat="49.14313" lon="1.39103">
        <ele>81.088165</ele>
        <time>2024-04-10T20:56:30.246Z</time>
      </trkpt>
      <trkpt lat="49.14334" lon="1.3912">
        <ele>79.058784</ele>
        <time>2024-04-10T20:56:33.287Z</time>
      </trkpt>
      <trkpt lat="49.14421" lon="1.39188">
        <ele>72.185183</ele>
        <time>2024-04-10T20:56:46.221Z</time>
      </trkpt>
      <trkpt lat="49.1445" lon="1.39215">
        <ele>70.882031</ele>
        <time>2024-04-10T20:56:51.081Z</time>
      </trkpt>
      <trkpt lat="49.14381" lon="1.39476">
        <ele>64.920739</ele>
        <time>2024-04-10T20:57:19.306Z</time>
      </trkpt>
      <trkpt lat="49.1439" lon="1.39471">
        <ele>64.695096</ele>
        <time>2024-04-10T20:57:20.973Z</time>
      </trkpt>
      <trkpt lat="49.14481" lon="1.3951">
        <ele>62.515843</ele>
        <time>2024-04-10T20:57:35.366Z</time>
      </trkpt>
      <trkpt lat="49.14535" lon="1.3954">
        <ele>60.720946</ele>
        <time>2024-04-10T20:57:43.556Z</time>
      </trkpt>
      <trkpt lat="49.14602" lon="1.39583">
        <ele>58.377319</ele>
        <time>2024-04-10T20:57:53.835Z</time>
      </trkpt>
      <trkpt lat="49.14656" lon="1.39618">
        <ele>56.466699</ele>
        <time>2024-04-10T20:58:02.258Z</time>
      </trkpt>
      <trkpt lat="49.14668" lon="1.39622">
        <ele>56.033879</ele>
        <time>2024-04-10T20:58:04.087Z</time>
      </trkpt>
      <trkpt lat="49.14702" lon="1.39469">
        <ele>52.366042</ele>
        <time>2024-04-10T20:58:19.167Z</time>
      </trkpt>
      <trkpt lat="49.14709" lon="1.3944">
        <ele>51.645885</ele>
        <time>2024-04-10T20:58:22.013Z</time>
      </trkpt>
      <trkpt lat="49.14761" lon="1.39453">
        <ele>49.669617</ele>
        <time>2024-04-10T20:58:35.556Z</time>
      </trkpt>
      <trkpt lat="49.14794" lon="1.39455">
        <ele>48.261196</ele>
        <time>2024-04-10T20:58:43.578Z</time>
      </trkpt>
      <trkpt lat="49.14801" lon="1.3945">
        <ele>47.913242</ele>
        <time>2024-04-10T20:58:45.502Z</time>
      </trkpt>
      <trkpt lat="49.14836" lon="1.39445">
        <ele>46.369499</ele>
        <time>2024-04-10T20:58:54.129Z</time>
      </trkpt>
      <trkpt lat="49.15014" lon="1.39348">
        <ele>38.48161</ele>
        <time>2024-04-10T20:59:40.430Z</time>
      </trkpt>
      <trkpt lat="49.15092" lon="1.393">
        <ele>35.14294</ele>
        <time>2024-04-10T21:00:01.824Z</time>
      </trkpt>
      <trkpt lat="49.15137" lon="1.39259">
        <ele>33.691255</ele>
        <time>2024-04-10T21:00:15.385Z</time>
      </trkpt>
      <trkpt lat="49.15192" lon="1.3924">
        <ele>32.140564</ele>
        <time>2024-04-10T21:00:30.216Z</time>
      </trkpt>
      <trkpt lat="49.15234" lon="1.39219">
        <ele>30.934898</ele>
        <time>2024-04-10T21:00:41.860Z</time>
      </trkpt>
      <trkpt lat="49.15279" lon="1.39188">
        <ele>29.815148</ele>
        <time>2024-04-10T21:00:55.317Z</time>
      </trkpt>
      <trkpt lat="49.15407" lon="1.39118">
        <ele>27.434715</ele>
        <time>2024-04-10T21:01:33.212Z</time>
      </trkpt>
      <trkpt lat="49.15532" lon="1.39069">
        <ele>25.47807</ele>
        <time>2024-04-10T21:02:10.044Z</time>
      </trkpt>
      <trkpt lat="49.15749" lon="1.38953">
        <ele>21.872407</ele>
        <time>2024-04-10T21:03:14.578Z</time>
      </trkpt>
      <trkpt lat="49.15976" lon="1.38908">
        <ele>18.789875</ele>
        <time>2024-04-10T21:04:19.491Z</time>
      </trkpt>
      <trkpt lat="49.16057" lon="1.38712">
        <ele>17.366237</ele>
        <time>2024-04-10T21:05:04.183Z</time>
      </trkpt>
      <trkpt lat="49.16107" lon="1.38574">
        <ele>17.077649</ele>
        <time>2024-04-10T21:05:35.511Z</time>
      </trkpt>
      <trkpt lat="49.16147" lon="1.38491">
        <ele>16.889064</ele>
        <time>2024-04-10T21:05:57.154Z</time>
      </trkpt>
      <trkpt lat="49.16166" lon="1.38437">
        <ele>17.050296</ele>
        <time>2024-04-10T21:06:10.502Z</time>
      </trkpt>
      <trkpt lat="49.16174" lon="1.38443">
        <ele>17.102711</ele>
        <time>2024-04-10T21:06:12.481Z</time>
      </trkpt>
      <trkpt lat="49.16226" lon="1.38483">
        <ele>17.433875</ele>
        <time>2024-04-10T21:06:25.931Z</time>
      </trkpt>
      <trkpt lat="49.16262" lon="1.38504">
        <ele>17.65508</ele>
        <time>2024-04-10T21:06:35.076Z</time>
      </trkpt>
      <trkpt lat="49.16286" lon="1.38523">
        <ele>17.810249</ele>
        <time>2024-04-10T21:06:41.603Z</time>
      </trkpt>
      <trkpt lat="49.16335" lon="1.38573">
        <ele>17.903135</ele>
        <time>2024-04-10T21:06:56.206Z</time>
      </trkpt>
      <trkpt lat="49.16352" lon="1.38592">
        <ele>17.904857</ele>
        <time>2024-04-10T21:07:01.409Z</time>
      </trkpt>
      <trkpt lat="49.16405" lon="1.38643">
        <ele>17.909861</ele>
        <time>2024-04-10T21:07:15.385Z</time>
      </trkpt>
      <trkpt lat="49.16447" lon="1.38679">
        <ele>17.913752</ele>
        <time>2024-04-10T21:07:24.876Z</time>
      </trkpt>
      <trkpt lat="49.16475" lon="1.38699">
        <ele>17.180702</ele>
        <time>2024-04-10T21:07:29.723Z</time>
      </trkpt>
      <trkpt lat="49.16508" lon="1.38716">
        <ele>16.193437</ele>
        <time>2024-04-10T21:07:35.082Z</time>
      </trkpt>
      <trkpt lat="49.16531" lon="1.38742">
        <ele>15.395074</ele>
        <time>2024-04-10T21:07:39.403Z</time>
      </trkpt>
      <trkpt lat="49.16563" lon="1.38779">
        <ele>14.246092</ele>
        <time>2024-04-10T21:07:45.575Z</time>
      </trkpt>
      <trkpt lat="49.16579" lon="1.38795">
        <ele>13.710303</ele>
        <time>2024-04-10T21:07:48.546Z</time>
      </trkpt>
      <trkpt lat="49.16605" lon="1.38822">
        <ele>12.849699</ele>
        <time>2024-04-10T21:07:53.157Z</time>
      </trkpt>
      <trkpt lat="49.1666" lon="1.38697">
        <ele>11.181128</ele>
        <time>2024-04-10T21:08:08.665Z</time>
      </trkpt>
      <trkpt lat="49.16684" lon="1.38643">
        <ele>10.45637</ele>
        <time>2024-04-10T21:08:15.774Z</time>
      </trkpt>
      <trkpt lat="49.16809" lon="1.38368">
        <ele>11.427319</ele>
        <time>2024-04-10T21:09:11.530Z</time>
      </trkpt>
      <trkpt lat="49.1686" lon="1.38247">
        <ele>12.072017</ele>
        <time>2024-04-10T21:09:34.473Z</time>
      </trkpt>
      <trkpt lat="49.16896" lon="1.38159">
        <ele>12.532192</ele>
        <time>2024-04-10T21:09:50.053Z</time>
      </trkpt>
      <trkpt lat="49.16933" lon="1.38072">
        <ele>12.692534</ele>
        <time>2024-04-10T21:10:05.088Z</time>
      </trkpt>
      <trkpt lat="49.16969" lon="1.37975">
        <ele>12.762198</ele>
        <time>2024-04-10T21:10:20.755Z</time>
      </trkpt>
      <trkpt lat="49.16974" lon="1.37954">
        <ele>12.775964</ele>
        <time>2024-04-10T21:10:23.621Z</time>
      </trkpt>
      <trkpt lat="49.16986" lon="1.37949">
        <ele>12.787982</ele>
        <time>2024-04-10T21:10:25.940Z</time>
      </trkpt>
      <trkpt lat="49.16996" lon="1.37936">
        <ele>12.800386</ele>
        <time>2024-04-10T21:10:28.386Z</time>
      </trkpt>
      <trkpt lat="49.17116" lon="1.37683">
        <ele>12.000177</ele>
        <time>2024-04-10T21:11:07.356Z</time>
      </trkpt>
      <trkpt lat="49.17166" lon="1.37576">
        <ele>11.667577</ele>
        <time>2024-04-10T21:11:33.502Z</time>
      </trkpt>
      <trkpt lat="49.17176" lon="1.37563">
        <ele>11.615727</ele>
        <time>2024-04-10T21:11:37.643Z</time>
      </trkpt>
      <trkpt lat="49.17215" lon="1.37479">
        <ele>11.354506</ele>
        <time>2024-04-10T21:11:58.595Z</time>
      </trkpt>
      <trkpt lat="49.17275" lon="1.37366">
        <ele>11.188071</ele>
        <time>2024-04-10T21:12:28.444Z</time>
      </trkpt>
      <trkpt lat="49.17356" lon="1.37225">
        <ele>10.961291</ele>
        <time>2024-04-10T21:13:06.752Z</time>
      </trkpt>
      <trkpt lat="49.1739" lon="1.37147">
        <ele>10.816355</ele>
        <time>2024-04-10T21:13:25.594Z</time>
      </trkpt>
      <trkpt lat="49.17435" lon="1.36991">
        <ele>10.637728</ele>
        <time>2024-04-10T21:13:59.987Z</time>
      </trkpt>
      <trkpt lat="49.17471" lon="1.36768">
        <ele>10.760834</ele>
        <time>2024-04-10T21:14:48.899Z</time>
      </trkpt>
      <trkpt lat="49.17524" lon="1.36412">
        <ele>11.462044</ele>
        <time>2024-04-10T21:16:09.062Z</time>
      </trkpt>
      <trkpt lat="49.17566" lon="1.36191">
        <ele>11.601693</ele>
        <time>2024-04-10T21:16:57.380Z</time>
      </trkpt>
      <trkpt lat="49.17592" lon="1.36085">
        <ele>11.479406</ele>
        <time>2024-04-10T21:17:20.532Z</time>
      </trkpt>
      <trkpt lat="49.17592" lon="1.36075">
        <ele>11.468795</ele>
        <time>2024-04-10T21:17:21.889Z</time>
      </trkpt>
      <trkpt lat="49.176" lon="1.36043">
        <ele>11.431136</ele>
        <time>2024-04-10T21:17:26.564Z</time>
      </trkpt>
      <trkpt lat="49.17614" lon="1.35986">
        <ele>11.365777</ele>
        <time>2024-04-10T21:17:34.847Z</time>
      </trkpt>
      <trkpt lat="49.17666" lon="1.35814">
        <ele>11.242489</ele>
        <time>2024-04-10T21:18:13.315Z</time>
      </trkpt>
      <trkpt lat="49.17718" lon="1.35663">
        <ele>11.17991</ele>
        <time>2024-04-10T21:18:49.350Z</time>
      </trkpt>
      <trkpt lat="49.17694" lon="1.35643">
        <ele>11.17991</ele>
        <time>2024-04-10T21:18:58.225Z</time>
      </trkpt>
      <trkpt lat="49.1766" lon="1.35614">
        <ele>11.17991</ele>
        <time>2024-04-10T21:19:11.090Z</time>
      </trkpt>
    </trkseg>
  </trk>
</gpx>